• Join FlightAware (Why Join?)
  • Login
  • US Flag 
04:05AM EDT


 

Airport Tracker/Info


-or-


 

Live Flight TrackerFlight Track Log ✈ USC491 ✈ 03-Feb-2014 ✈ KHOU - KADS

Flight Track Log - Related Links

Times and Time Zones

All times are in EST time to prevent confusion due to time zone crossing. See the USC491 flight status page for this flight to view local times or setup timezone preferences in your user account.

Time Position Orientation Groundspeed Altitude Reporting Facility
EST Latitude Longitude Course Direction KTS MPH feet Rate Location/Type
10:56PM 29.6539 -95.2844 326° Northwest 101 116 500  Level Houston Center
10:57PM 29.6856 -95.3094 326° Northwest 109 125 1,900 1,020 Climbing Houston Center
10:58PM 29.6956 -95.3169 327° Northwest 107 123 2,400 960 Climbing Houston Center
10:58PM 29.7103 -95.3281 327° Northwest 113 130 2,900 840 Climbing Houston Center
10:59PM 29.7231 -95.3378 327° Northwest 112 129 3,300 840 Climbing Houston Center
10:59PM 29.7400 -95.3533 321° Northwest 139 160 3,800 840 Climbing Houston Center
11:00PM 29.7536 -95.3628 329° Northwest 126 145 4,200 960 Climbing Houston Center
11:00PM 29.7714 -95.3761 327° Northwest 131 151 4,800 840 Climbing Houston Center
11:01PM 29.7853 -95.3839 334° Northwest 131 151 5,100 780 Climbing Houston Center
11:01PM 29.8086 -95.3908 346° North 130 150 5,600 780 Climbing Houston Center
11:02PM 29.8200 -95.3958 339° North 129 148 5,900 720 Climbing Houston Center
11:02PM 29.8369 -95.4019 343° North 132 152 6,300 780 Climbing Houston Center
11:03PM 29.8556 -95.4067 348° North 131 151 6,700 540 Climbing Houston Center
11:03PM 29.8778 -95.4139 344° North 136 157 6,900 180 Climbing Houston Center
11:04PM 29.9064 -95.4211 348° North 156 180 6,900  Level Houston Center
11:04PM 29.9233 -95.4278 341° North 181 208 6,900  Level Houston Center
11:05PM 29.9558 -95.4372 346° North 181 208 6,900  Level Houston Center
11:05PM 29.9839 -95.4494 339° North 190 219 6,900  Level Houston Center
11:06PM 30.0064 -95.4547 349° North 188 216 6,900  Level Houston Center
11:06PM 30.0356 -95.4625 347° North 187 215 6,900 60 Level Houston Center
11:07PM 30.0586 -95.4647 355° North 189 217 7,000  Climbing Houston Center
11:07PM 30.0908 -95.4703 352° North 192 221 6,900 -120 Descending Houston Center
11:08PM 30.1122 -95.4717 357° North 191 220 6,900  Level Houston Center
11:08PM 30.1439 -95.4761 353° North 193 222 6,900 -120 Level Houston Center
11:09PM 30.1658 -95.4781 356° North 192 221 6,800 -540 Descending Houston Center
11:10PM 30.2033 -95.4836 353° North 202 232 6,300 -840 Descending Houston Center
11:10PM 30.2228 -95.4850 356° North 204 235 6,000 -420 Descending Houston Center
11:11PM 30.2650 -95.4931 351° North 210 242 5,900 -120 Descending Houston Center
11:11PM 30.2797 -95.4967 348° North 205 236 5,900  Level Houston Center
11:12PM 30.3308 -95.5114 346° North 190 219 5,900  Level Houston Center
11:13PM 30.3786 -95.5308 341° North 183 211 5,900  Level Houston Center
11:14PM 30.4275 -95.5525 339° North 188 216 5,900  Level Houston Center
11:15PM 30.4758 -95.5758 337° Northwest 188 216 5,900  Level Houston Center
11:16PM 30.5203 -95.6025 333° Northwest 182 209 5,900  Level Houston Center
11:17PM 30.5667 -95.6306 332° Northwest 186 214 5,900  Level Houston Center
11:18PM 30.6244 -95.6550 340° North 184 212 5,900  Level Houston Center
11:19PM 30.6736 -95.6739 342° North 186 214 6,000  Climbing Houston Center
11:20PM 30.7194 -95.6967 337° Northwest 193 222 5,900 -60 Descending Houston Center
11:21PM 30.7636 -95.7261 330° Northwest 186 214 5,900  Level Houston Center
11:22PM 30.8064 -95.7575 328° Northwest 183 211 5,900  Level Houston Center
11:23PM 30.8497 -95.7894 328° Northwest 183 211 5,900  Level Houston Center
11:24PM 30.8953 -95.8200 330° Northwest 187 215 5,900  Level Houston Center
11:25PM 30.9383 -95.8508 328° Northwest 183 211 5,900  Level Houston Center
11:26PM 30.9833 -95.8822 329° Northwest 187 215 5,900  Level Houston Center
11:27PM 31.0383 -95.9142 334° Northwest 185 213 5,900  Level Houston Center
11:28PM 31.0878 -95.9403 336° Northwest 191 220 5,900  Level Houston Center
11:29PM 31.1358 -95.9650 336° Northwest 189 217 5,900  Level Houston Center
11:30PM 31.1881 -95.9817 345° North 192 221 5,900  Level Houston Center
11:31PM 31.2428 -95.9853 357° North 195 224 5,900  Level Houston Center
11:32PM 31.2928 -96.0033 343° North 191 220 6,000  Climbing Houston Center
11:33PM 31.3464 -96.0183 347° North 194 223 5,900 -60 Descending Houston Center
11:34PM 31.4006 -96.0283 351° North 195 224 5,900  Level Houston Center
11:35PM 31.4533 -96.0319 357° North 194 223 5,900  Level Houston Center
11:36PM 31.5064 -96.0369 355° North 191 220 5,900  Level Houston Center
11:37PM 31.5575 -96.0517 346° North 189 217 5,900  Level Houston Center
11:38PM 31.6089 -96.0661 347° North 189 217 5,900  Level Houston Center
11:39PM 31.6606 -96.0800 347° North 190 219 5,900  Level Houston Center
11:40PM 31.7136 -96.0956 346° North 189 217 6,000  Climbing Houston Center
11:41PM 31.7667 -96.1069 350° North 191 220 5,900  Descending Houston Center
11:42PM 31.8222 -96.1131 355° North 196 226 6,000  Climbing Houston Center
11:43PM 31.8764 -96.1192 355° North 194 223 5,900 -60 Descending Houston Center
11:44PM 31.9300 -96.1292 351° North 193 222 5,900  Level Fort Worth Center
11:45PM 31.9831 -96.1447 346° North 189 217 5,900  Level Fort Worth Center
11:46PM 32.0331 -96.1675 339° North 192 221 5,900  Level Fort Worth Center
11:47PM 32.0833 -96.1894 340° North 194 223 6,000  Climbing Fort Worth Center
11:48PM 32.1361 -96.2081 343° North 198 228 5,900 -60 Descending Fort Worth Center
11:50PM 32.1894 -96.2161 353° North 195 224 5,900  Level Fort Worth Center
11:51PM 32.2447 -96.2419 338° Northwest 193 222 5,900  Level Fort Worth Center
11:52PM 32.2931 -96.2769 329° Northwest 190 219 5,900  Level Fort Worth Center
11:53PM 32.3403 -96.3069 332° Northwest 194 223 5,900  Level Fort Worth Center
11:54PM 32.3894 -96.3358 334° Northwest 197 227 6,000  Climbing Fort Worth Center
11:55PM 32.4347 -96.3706 327° Northwest 194 223 5,900 -240 Descending Fort Worth Center
11:56PM 32.4833 -96.4025 331° Northwest 199 229 5,600 -480 Descending Fort Worth Center
11:57PM 32.5350 -96.4408 328° Northwest 218 251 5,000 -360 Descending Fort Worth Center
11:58PM 32.5867 -96.4700 335° Northwest 208 239 4,900 -60 Descending Fort Worth Center
11:59PM 32.6397 -96.4992 335° Northwest 196 226 4,900  Level Fort Worth Center
12:00AM 32.6892 -96.5317 331° Northwest 202 232 4,900  Level Fort Worth Center
12:01AM 32.7364 -96.5639 330° Northwest 197 227 4,900 -300 Level Fort Worth Center
12:02AM 32.7858 -96.5981 330° Northwest 203 234 4,300 -480 Descending Fort Worth Center
12:03AM 32.8392 -96.6347 330° Northwest 218 251 4,000 -600 Descending Fort Worth Center
12:04AM 32.8900 -96.6703 330° Northwest 214 246 3,100 -600 Descending Fort Worth Center
12:05AM 32.9347 -96.7067 326° Northwest 193 222 2,900 -120 Descending Fort Worth Center
12:06AM 32.9814 -96.7306 337° Northwest 169 194 2,900  Level Fort Worth Center
12:07AM 33.0253 -96.7375 352° North 159 183 2,900  Level Fort Worth Center
12:08AM 33.0672 -96.7578 338° Northwest 162 186 2,900  Level Fort Worth Center
12:09AM 33.1064 -96.7825 332° Northwest 160 184 2,900  Level Fort Worth Center
12:10AM 33.1450 -96.8078 331° Northwest 159 183 3,000  Climbing Fort Worth Center
12:11AM 33.1433 -96.8553 268° West 154 177 2,900 -480 Descending Fort Worth Center
12:12AM 33.1167 -96.8833 221° Southwest 129 148 2,100 -540 Descending Dallas / Fort Worth TRACON
12:13AM 33.0833 -96.8833 180° South 111 128 1,900 -120 Descending Dallas / Fort Worth TRACON
12:14AM 33.0667 -96.8667 140° Southeast 106 122 1,900  Level Dallas / Fort Worth TRACON
12:15AM 33.1000 -96.8667 360° North 134 154 1,900  Level Dallas / Fort Worth TRACON
12:16AM 33.1322 -96.8631 North 136 157 1,900  Level Fort Worth Center
12:17AM 33.1500 -96.8858 313° West 145 167 1,900  Level Fort Worth Center
12:18AM 33.1167 -96.8833 176° South 104 120 1,900  Level Dallas / Fort Worth TRACON
12:19AM 33.1000 -96.8833 180° South 107 123 1,900  Level Dallas / Fort Worth TRACON
12:21AM 33.0436 -96.8686 168° South 101 116 1,900  Level Fort Worth Center